• Join FlightAware (Why Join?)
  • Login
  • US Flag 
09:35AM EDT


 

Airport Tracker/Info


-or-


 

Live Flight TrackerFlight Track Log ✈ AAL2360 ✈ 25-Apr-2013 ✈ KDFW - KORD

Flight Track Log - Related Links

Times and Time Zones

All times are in EDT time to prevent confusion due to time zone crossing. See the AAL2360 flight status page for this flight to view local times or setup timezone preferences in your user account.

Time Position Orientation Groundspeed Altitude Reporting Facility
EDT Latitude Longitude Course Direction KTS MPH feet Rate Location/Type
03:40PM 32.8500 -97.0333 357° North 207 238 2,600  Level Dallas / Fort Worth TRACON
03:41PM 32.7833 -97.0000 157° South 243 280 5,300 2,580 Climbing Dallas / Fort Worth TRACON
03:42PM 32.8581 -96.8000 North  Level FlightAware Approximate
03:42PM 32.7667 -96.9167 103° East 278 320 7,600  Level Dallas / Fort Worth TRACON
03:43PM 32.9791 -96.8000 North  Level FlightAware Approximate
03:43PM 32.7833 -96.8333 77° East 315 362 9,800  Level Dallas / Fort Worth TRACON
03:44PM 33.1001 -96.8024 357° North  Level FlightAware Approximate
03:44PM 32.8833 -96.8167 North 328 377 12,200  Level Dallas / Fort Worth TRACON
03:45PM 33.2209 -96.8110 357° North  Level FlightAware Approximate
03:46PM 33.0886 -96.8133 North 364 419 17,400  Level Fort Worth Center
03:47PM 33.2078 -96.8175 358° North 369 425 19,200 1,680 Climbing Fort Worth Center
03:48PM 33.3081 -96.8219 358° North 390 449 20,800 1,800 Climbing Fort Worth Center
03:49PM 33.4311 -96.8236 359° North 400 460 22,800 1,740 Climbing Fort Worth Center
03:50PM 33.5353 -96.7706 23° Northeast 414 476 24,300 1,440 Climbing Fort Worth Center
03:51PM 33.6558 -96.6947 28° Northeast 435 501 25,700 1,320 Climbing Fort Worth Center
03:52PM 33.7703 -96.6214 28° Northeast 447 514 27,000 1,320 Climbing Fort Worth Center
03:53PM 33.8867 -96.5428 29° Northeast 461 531 28,400 1,380 Climbing Fort Worth Center
03:54PM 34.0028 -96.4689 28° Northeast 461 531 29,800 1,080 Climbing Fort Worth Center
03:55PM 34.1192 -96.3925 29° Northeast 461 531 30,600 960 Climbing Fort Worth Center
03:56PM 34.2122 -96.3083 37° Northeast 461 531 31,800 900 Climbing Fort Worth Center
03:57PM 34.3242 -96.2139 35° Northeast 473 544 32,500 600 Climbing Fort Worth Center
03:58PM 34.4381 -96.1192 34° Northeast 486 559 33,000 240 Climbing Fort Worth Center
03:59PM 34.5497 -96.0294 33° Northeast 486 559 33,000  Level Fort Worth Center
04:00PM 34.6614 -95.9392 34° Northeast 486 559 33,000  Level Fort Worth Center
04:01PM 34.7686 -95.8464 35° Northeast 486 559 33,000  Level Fort Worth Center
04:02PM 34.8719 -95.7608 34° Northeast 491 565 33,000  Level Fort Worth Center
04:03PM 35.0039 -95.6467 35° Northeast 491 565 33,000  Level Fort Worth Center
04:04PM 35.1067 -95.5458 39° Northeast 486 559 33,000  Level Fort Worth Center
04:05PM 35.2156 -95.4442 37° Northeast 480 552 33,000  Level Fort Worth Center
04:06PM 35.3792 -95.2894 38° Northeast 474 545 33,000  Level Memphis Center
04:07PM 35.4853 -95.1886 38° Northeast 474 545 33,000  Level Memphis Center
04:08PM 35.5914 -95.0853 38° Northeast 480 552 33,000  Level Memphis Center
04:09PM 35.6975 -94.9839 38° Northeast 480 552 33,000  Level Memphis Center
04:10PM 35.8014 -94.8797 39° Northeast 480 552 33,000  Level Memphis Center
04:11PM 35.9094 -94.7753 38° Northeast 480 552 33,000  Level Memphis Center
04:12PM 36.0153 -94.6706 39° Northeast 480 552 33,000  Level Memphis Center
04:13PM 36.1208 -94.5683 38° Northeast 480 552 33,000  Level Memphis Center
04:14PM 36.2267 -94.4631 39° Northeast 480 552 33,000  Level Memphis Center
04:17PM 36.5028 -94.1931 38° Northeast 487 560 33,000  Level Kansas City Center
04:18PM 36.6075 -94.0897 38° Northeast 482 555 33,000  Level Kansas City Center
04:19PM 36.7111 -93.9872 38° Northeast 477 549 33,000  Level Kansas City Center
04:20PM 36.8142 -93.8828 39° Northeast 477 549 33,000  Level Kansas City Center
04:21PM 36.9169 -93.7803 39° Northeast 469 540 33,000  Level Kansas City Center
04:22PM 37.0394 -93.6997 28° Northeast 454 522 33,000  Level Kansas City Center
04:23PM 37.1569 -93.6492 19° North 445 512 33,000  Level Kansas City Center
04:24PM 37.2736 -93.5989 19° North 443 510 33,000  Level Kansas City Center
04:25PM 37.3892 -93.5500 19° North 438 504 33,000  Level Kansas City Center
04:26PM 37.5042 -93.4992 19° North 437 503 33,000  Level Kansas City Center
04:27PM 37.6433 -93.4403 19° North 437 503 33,000  Level Kansas City Center
04:28PM 37.7592 -93.3911 19° North 436 502 33,000  Level Kansas City Center
04:29PM 37.8756 -93.3403 19° North 438 504 33,000  Level Kansas City Center
04:30PM 37.9908 -93.2908 19° North 437 503 33,000  Level Kansas City Center
04:31PM 38.1047 -93.2336 22° Northeast 439 505 33,000  Level Kansas City Center
04:32PM 38.2061 -93.1272 39° Northeast 467 537 33,000  Level Kansas City Center
04:34PM 38.3031 -93.0014 46° Northeast 487 560 33,000  Level Kansas City Center
04:35PM 38.3972 -92.8750 46° Northeast 488 562 33,000  Level Kansas City Center
04:36PM 38.5092 -92.7242 46° Northeast 485 558 33,000  Level Kansas City Center
04:37PM 38.6033 -92.6000 46° Northeast 484 557 33,000  Level Kansas City Center
04:38PM 38.6953 -92.4750 47° Northeast 480 552 33,000  Level Kansas City Center
04:39PM 38.7869 -92.3494 47° Northeast 479 551 33,000  Level Kansas City Center
04:40PM 38.8783 -92.2258 46° Northeast 476 548 33,000  Level Kansas City Center
04:41PM 38.9697 -92.1019 46° Northeast 475 547 33,000  Level Kansas City Center
04:42PM 39.0611 -91.9775 47° Northeast 476 548 33,000  Level Kansas City Center
04:43PM 39.1525 -91.8508 47° Northeast 479 551 33,000  Level Kansas City Center
04:44PM 39.2608 -91.7044 46° Northeast 476 548 33,000  Level Kansas City Center
04:45PM 39.3597 -91.6486 24° Northeast 443 510 33,000  Level Kansas City Center
04:46PM 39.4628 -91.6706 351° North 387 445 33,000  Level Kansas City Center
04:47PM 39.5717 -91.7064 346° North 377 434 33,000  Level Kansas City Center
04:48PM 39.6703 -91.7406 345° North 371 427 33,000  Level Kansas City Center
04:49PM 39.7986 -91.6986 14° North 430 495 33,000  Level Kansas City Center
04:51PM 39.9045 -91.5249 51° Northeast  Level Estimated
04:51PM 39.9156 -91.3775 51° Northeast 501 577 33,000  Level Chicago Center
04:52PM 39.9714 -91.2125 66° East 503 579 33,000  Level Kansas City Center
04:53PM 40.0272 -91.0489 66° East 500 575 33,000  Level Kansas City Center
04:54PM 40.0931 -90.8594 66° East 499 574 33,000  Level Kansas City Center
04:55PM 40.1483 -90.6936 66° East 499 574 33,000  Level Kansas City Center
04:56PM 40.2261 -90.5564 53° Northeast 475 547 33,000  Level Kansas City Center
04:57PM 40.3244 -90.4569 38° Northeast 448 516 33,000  Level Chicago Center
04:57PM 40.3244 -90.4569 38° Northeast 447 514 33,000 -420 Level Kansas City Center
04:58PM 40.4222 -90.3561 38° Northeast 448 516 32,600 -660 Descending Chicago Center
04:59PM 40.5197 -90.2578 37° Northeast 443 510 31,700 -840 Descending Chicago Center
05:00PM 40.6317 -90.1706 31° Northeast 424 488 30,900 -780 Descending Chicago Center
05:01PM 40.7322 -90.0944 30° Northeast 418 481 30,100 -1,200 Descending Chicago Center
05:02PM 40.8292 -90.0217 30° Northeast 406 467 28,500 -1,980 Descending Chicago Center
05:03PM 40.9306 -89.9092 40° Northeast 407 468 26,100 -1,920 Descending Chicago Center
05:04PM 41.0058 -89.8056 46° Northeast 400 460 24,600 -1,020 Descending Chicago Center
05:05PM 41.0811 -89.6983 47° Northeast 398 458 24,000 -600 Descending Chicago Center
05:07PM 41.1550 -89.5933 47° Northeast 392 451 23,400 -1,080 Descending Chicago Center
05:08PM 41.2094 -89.4656 60° Northeast 398 458 21,800 -1,200 Descending Chicago Center
05:09PM 41.2606 -89.3406 61° Northeast 390 449 21,000 -1,200 Descending Chicago Center
05:10PM 41.3206 -89.1947 61° Northeast 383 441 19,400 -1,620 Descending Chicago Center
05:11PM 41.3650 -89.0775 63° Northeast 361 415 17,700 -2,220 Descending Chicago Center
05:12PM 41.4119 -88.9617 62° Northeast 357 411 14,800 -2,700 Descending Chicago Center
05:13PM 41.4606 -88.8381 62° Northeast 373 429 12,200 -1,860 Descending Chicago Center
05:14PM 41.5078 -88.7175 62° Northeast 368 423 11,000 -600 Descending Chicago Center
05:15PM 41.5636 -88.5747 62° Northeast 361 415 11,000  Level Chicago Center
05:16PM 41.6136 -88.4583 60° Northeast 361 415 11,000  Level Chicago Center
05:17PM 41.6728 -88.3567 52° Northeast 344 396 11,000 -720 Level Chicago Center
05:18PM 41.7236 -88.2694 52° Northeast 303 349 9,600 -1,260 Descending Chicago Center
05:19PM 41.7731 -88.1842 52° Northeast 290 334 8,500 -900 Descending Chicago Center
05:20PM 41.8206 -88.1019 52° Northeast 281 323 7,800 -720 Descending Chicago Center
05:21PM 41.8764 -88.0017 53° Northeast 280 322 7,100 -420 Descending Chicago Center
05:22PM 41.8842 -87.9008 84° East 270 311 7,000 -60 Descending Chicago Center
05:23PM 41.8828 -87.8111 91° East 250 288 7,000 -420 Level Chicago Center
05:24PM 41.8833 -87.7333 89° East 208 239 6,200 -960 Descending Chicago TRACON
05:25PM 41.8833 -87.6667 90° East 195 224 5,200 -1,140 Descending Chicago TRACON
05:26PM 41.9167 -87.6333 37° Northeast 196 226 4,000 -780 Descending Chicago TRACON
05:27PM 41.9500 -87.6833 312° West 181 208 3,700 -300 Descending Chicago TRACON